Time;durP1;ratioP1;P1;durP2;ratioP2;P2;SDS_P1;SDS_P2;PMS_P1;PMS_P2;Temp;Humidity;BMP_temperature;BMP_pressure;BME280_temperature;BME280_humidity;BME280_pressure;Samples;Min_cycle;Max_cycle;Signal;HPM_P1;HPM_P2
2023/06/02 00:01:00;;;;;;;;;;;21.20;45.50;;;;;;5086565;28;19912;-55
2023/06/02 00:03:32;;;;;;;;;;;21.20;45.60;;;;;;5089971;28;19919;-55
2023/06/02 00:05:59;;;;;;;;;;;21.20;45.80;;;;;;5088391;28;19923;-55
2023/06/02 00:08:25;;;;;;;;;;;21.20;45.80;;;;;;5088863;28;19927;-55
2023/06/02 00:10:50;;;;;;;;;;;21.20;45.80;;;;;;5088575;28;20376;-55
2023/06/02 00:13:16;;;;;;;;;;;21.20;45.80;;;;;;5072737;28;19966;-55
2023/06/02 00:15:41;;;;;;;;;;;21.20;45.90;;;;;;5091552;28;19912;-55
2023/06/02 00:18:07;;;;;;;;;;;21.20;45.90;;;;;;5066844;28;19919;-55
2023/06/02 00:20:33;;;;;;;;;;;21.20;46.00;;;;;;5090765;28;20276;-55
2023/06/02 00:23:00;;;;;;;;;;;21.20;46.00;;;;;;5089482;28;19967;-55
2023/06/02 00:25:25;;;;;;;;;;;21.20;46.00;;;;;;5069186;28;19912;-55
2023/06/02 00:27:51;;;;;;;;;;;21.20;46.10;;;;;;5088579;28;20364;-55
2023/06/02 00:30:16;;;;;;;;;;;21.20;46.10;;;;;;5091686;28;20376;-55
2023/06/02 00:32:42;;;;;;;;;;;21.20;46.10;;;;;;5086615;28;20258;-55
2023/06/02 00:35:07;;;;;;;;;;;21.20;46.10;;;;;;5091408;28;19957;-55
2023/06/02 00:37:33;;;;;;;;;;;21.20;46.10;;;;;;5091848;28;19916;-54
2023/06/02 00:39:58;;;;;;;;;;;21.20;46.10;;;;;;5086663;28;19919;-54
2023/06/02 00:42:24;;;;;;;;;;;21.20;46.20;;;;;;5081577;28;20702;-54
2023/06/02 00:44:49;;;;;;;;;;;21.10;46.30;;;;;;5078431;28;19978;-54
2023/06/02 00:47:15;;;;;;;;;;;21.10;46.40;;;;;;5081838;28;20137;-52
2023/06/02 00:49:41;;;;;;;;;;;21.10;46.30;;;;;;5076838;28;19912;-52
2023/06/02 00:52:06;;;;;;;;;;;21.20;46.30;;;;;;5075501;28;19923;-52
2023/06/02 00:54:32;;;;;;;;;;;21.10;46.30;;;;;;5094504;28;19913;-53
2023/06/02 00:56:57;;;;;;;;;;;21.20;46.40;;;;;;5093345;28;19998;-52
2023/06/02 00:59:23;;;;;;;;;;;21.20;46.40;;;;;;5082864;28;19913;-53
2023/06/02 01:01:49;;;;;;;;;;;21.10;46.40;;;;;;5091670;28;19916;-52
2023/06/02 01:04:15;;;;;;;;;;;21.10;46.40;;;;;;5094070;28;20671;-53
2023/06/02 01:06:40;;;;;;;;;;;21.10;46.50;;;;;;5073153;28;19920;-53
2023/06/02 01:09:06;;;;;;;;;;;21.10;46.50;;;;;;5077732;28;20415;-53
2023/06/02 01:11:32;;;;;;;;;;;21.10;46.60;;;;;;5093646;28;19912;-53
2023/06/02 01:13:58;;;;;;;;;;;21.10;46.50;;;;;;5075011;28;19970;-53
2023/06/02 01:16:23;;;;;;;;;;;21.10;46.50;;;;;;5077067;28;19969;-53
2023/06/02 01:18:51;;;;;;;;;;;21.20;46.60;;;;;;5095186;28;19919;-53
2023/06/02 01:21:21;;;;;;;;;;;21.20;46.50;;;;;;5066811;28;19966;-52
2023/06/02 01:23:50;;;;;;;;;;;21.20;46.60;;;;;;5062752;28;19916;-53
2023/06/02 01:26:15;;;;;;;;;;;21.10;46.60;;;;;;5090724;28;19916;-52
2023/06/02 01:28:41;;;;;;;;;;;21.20;46.70;;;;;;5055269;28;19924;-53
2023/06/02 01:31:20;;;;;;;;;;;21.20;46.70;;;;;;5090852;28;19944;-52
2023/06/02 01:34:06;;;;;;;;;;;21.20;46.80;;;;;;5075447;28;19994;-52
2023/06/02 01:36:32;;;;;;;;;;;21.20;46.70;;;;;;5065081;28;19919;-53
2023/06/02 01:38:58;;;;;;;;;;;21.20;46.70;;;;;;5094963;28;19924;-52
2023/06/02 01:41:23;;;;;;;;;;;21.20;46.80;;;;;;5088313;28;19912;-53
2023/06/02 01:43:49;;;;;;;;;;;21.20;46.80;;;;;;5059642;28;19920;-53
2023/06/02 01:46:16;;;;;;;;;;;21.20;46.80;;;;;;5093482;28;20386;-53
2023/06/02 01:48:41;;;;;;;;;;;21.20;46.80;;;;;;5093586;28;19927;-53
2023/06/02 01:51:07;;;;;;;;;;;21.30;47.40;;;;;;5092527;28;20249;-53
2023/06/02 01:53:32;;;;;;;;;;;21.30;46.70;;;;;;5091223;28;20097;-53
2023/06/02 01:55:58;;;;;;;;;;;21.30;46.80;;;;;;5082206;28;19935;-53
2023/06/02 01:58:23;;;;;;;;;;;21.30;46.80;;;;;;5091842;28;19916;-53
2023/06/02 02:00:49;;;;;;;;;;;21.30;46.80;;;;;;5085395;28;19908;-53
2023/06/02 02:03:14;;;;;;;;;;;21.30;46.90;;;;;;5063957;28;19913;-53
2023/06/02 02:05:40;;;;;;;;;;;21.20;46.90;;;;;;5074393;28;20284;-53
2023/06/02 02:08:05;;;;;;;;;;;21.20;46.90;;;;;;5074739;28;19914;-53
2023/06/02 02:10:31;;;;;;;;;;;21.20;46.90;;;;;;5090854;28;19912;-52
2023/06/02 02:12:56;;;;;;;;;;;21.20;46.90;;;;;;5070066;28;19961;-54
2023/06/02 02:15:22;;;;;;;;;;;21.20;46.80;;;;;;5089067;28;19912;-53
2023/06/02 02:17:47;;;;;;;;;;;21.20;47.00;;;;;;5088351;28;19970;-53
2023/06/02 02:20:19;;;;;;;;;;;21.20;47.00;;;;;;5072902;28;20277;-53
2023/06/02 02:22:45;;;;;;;;;;;21.20;47.00;;;;;;5090642;28;19955;-52
2023/06/02 02:25:11;;;;;;;;;;;21.20;47.00;;;;;;5087946;28;19967;-53
2023/06/02 02:27:36;;;;;;;;;;;21.20;47.10;;;;;;5074281;28;20011;-52
2023/06/02 02:30:03;;;;;;;;;;;21.20;47.20;;;;;;5093243;28;20347;-53
2023/06/02 02:32:29;;;;;;;;;;;21.10;47.20;;;;;;5091394;28;20006;-53
2023/06/02 02:34:54;;;;;;;;;;;21.10;47.20;;;;;;5092846;28;19955;-53
2023/06/02 02:37:20;;;;;;;;;;;21.10;47.20;;;;;;5084035;28;19955;-53
2023/06/02 02:39:45;;;;;;;;;;;21.10;47.20;;;;;;5089529;28;20339;-53
2023/06/02 02:42:11;;;;;;;;;;;21.10;47.20;;;;;;5072060;28;19916;-53
2023/06/02 02:44:36;;;;;;;;;;;21.10;47.20;;;;;;5055645;28;19965;-53
2023/06/02 02:47:02;;;;;;;;;;;21.10;47.30;;;;;;5086354;28;20388;-53
2023/06/02 02:49:28;;;;;;;;;;;21.10;47.30;;;;;;5073656;28;20275;-53
2023/06/02 02:51:53;;;;;;;;;;;21.10;47.30;;;;;;5089256;28;20351;-53
2023/06/02 02:54:19;;;;;;;;;;;21.10;47.30;;;;;;5091905;28;19918;-53
2023/06/02 02:56:45;;;;;;;;;;;21.10;47.30;;;;;;5074672;28;19958;-53
2023/06/02 02:59:12;;;;;;;;;;;21.10;47.30;;;;;;5093039;28;20007;-53
2023/06/02 03:01:43;;;;;;;;;;;21.10;47.40;;;;;;5071398;28;19950;-54
2023/06/02 03:04:09;;;;;;;;;;;21.10;47.50;;;;;;5098223;28;19912;-54
2023/06/02 03:06:40;;;;;;;;;;;21.10;47.50;;;;;;5090471;28;19920;-54
2023/06/02 03:09:07;;;;;;;;;;;21.10;47.50;;;;;;5073585;28;20288;-54
2023/06/02 03:11:33;;;;;;;;;;;21.10;47.40;;;;;;5088196;28;19916;-53
2023/06/02 03:13:58;;;;;;;;;;;21.10;47.40;;;;;;5091707;28;19920;-54
2023/06/02 03:16:25;;;;;;;;;;;21.00;47.40;;;;;;5074311;28;20003;-53
2023/06/02 03:18:50;;;;;;;;;;;21.00;47.50;;;;;;5073887;28;19916;-54
2023/06/02 03:21:17;;;;;;;;;;;21.00;47.50;;;;;;5055939;28;20338;-54
2023/06/02 03:23:43;;;;;;;;;;;21.10;47.50;;;;;;5093402;28;19912;-53
2023/06/02 03:26:10;;;;;;;;;;;21.10;47.50;;;;;;5044990;28;19912;-54
2023/06/02 03:28:36;;;;;;;;;;;21.00;47.50;;;;;;5055806;28;19932;-54
2023/06/02 03:31:01;;;;;;;;;;;21.00;47.50;;;;;;5091533;28;20299;-54
2023/06/02 03:33:27;;;;;;;;;;;21.00;47.50;;;;;;5091624;28;19916;-54
2023/06/02 03:35:52;;;;;;;;;;;21.00;47.50;;;;;;5091402;28;19912;-53
2023/06/02 03:38:17;;;;;;;;;;;21.00;47.50;;;;;;5070373;28;19916;-54
2023/06/02 03:40:43;;;;;;;;;;;21.00;47.50;;;;;;5090984;28;19916;-54
2023/06/02 03:43:09;;;;;;;;;;;21.00;47.60;;;;;;5091447;28;19912;-53
2023/06/02 03:45:34;;;;;;;;;;;21.00;47.60;;;;;;5085731;28;19973;-53
2023/06/02 03:48:00;;;;;;;;;;;21.00;47.60;;;;;;5091060;28;20322;-54
2023/06/02 03:50:25;;;;;;;;;;;21.00;47.60;;;;;;5071592;28;19912;-53
2023/06/02 03:52:51;;;;;;;;;;;21.00;47.60;;;;;;5088074;28;19913;-53
2023/06/02 03:55:16;;;;;;;;;;;21.00;47.60;;;;;;5085979;28;19920;-53
2023/06/02 03:57:42;;;;;;;;;;;21.00;47.70;;;;;;5090411;28;19912;-54
2023/06/02 04:00:10;;;;;;;;;;;21.00;47.60;;;;;;5060487;28;19912;-54
2023/06/02 04:02:36;;;;;;;;;;;21.00;47.70;;;;;;5088553;28;20341;-53
2023/06/02 04:05:01;;;;;;;;;;;21.00;47.70;;;;;;5091327;28;19972;-53
2023/06/02 04:07:27;;;;;;;;;;;21.00;47.70;;;;;;5088099;28;19920;-53
2023/06/02 04:09:52;;;;;;;;;;;21.00;47.60;;;;;;5070069;28;20288;-54
2023/06/02 04:12:18;;;;;;;;;;;21.00;47.70;;;;;;5088331;28;19916;-54
2023/06/02 04:14:43;;;;;;;;;;;21.00;47.70;;;;;;5085732;28;20006;-53
2023/06/02 04:17:09;;;;;;;;;;;21.00;47.70;;;;;;5089467;28;19912;-53
2023/06/02 04:19:34;;;;;;;;;;;21.00;47.60;;;;;;5090379;28;19912;-54
2023/06/02 04:22:00;;;;;;;;;;;21.00;47.70;;;;;;5083210;28;19958;-54
2023/06/02 04:24:25;;;;;;;;;;;21.00;47.70;;;;;;5085595;28;19965;-53
2023/06/02 04:26:51;;;;;;;;;;;21.00;48.40;;;;;;5086852;28;19920;-54
2023/06/02 04:29:16;;;;;;;;;;;21.00;47.70;;;;;;5071370;28;20417;-53
2023/06/02 04:31:45;;;;;;;;;;;21.00;47.70;;;;;;5075703;28;19916;-53
2023/06/02 04:34:12;;;;;;;;;;;21.00;47.70;;;;;;5077484;28;19912;-54
2023/06/02 04:36:37;;;;;;;;;;;21.00;47.80;;;;;;5075908;28;19922;-54
2023/06/02 04:39:05;;;;;;;;;;;21.00;47.70;;;;;;5088935;28;19916;-54
2023/06/02 04:41:31;;;;;;;;;;;21.00;47.80;;;;;;5080535;28;20027;-54
2023/06/02 04:43:58;;;;;;;;;;;21.00;47.70;;;;;;5071447;28;20395;-54
2023/06/02 04:46:25;;;;;;;;;;;21.00;47.80;;;;;;5086246;28;19923;-53
2023/06/02 04:48:50;;;;;;;;;;;20.90;47.80;;;;;;5083618;28;20430;-54
2023/06/02 04:51:16;;;;;;;;;;;21.00;47.80;;;;;;5080257;28;19916;-54
2023/06/02 04:53:41;;;;;;;;;;;21.00;47.80;;;;;;5082336;28;19912;-54
2023/06/02 04:56:07;;;;;;;;;;;21.00;47.70;;;;;;5054643;28;19916;-54
2023/06/02 04:58:33;;;;;;;;;;;21.00;47.80;;;;;;5090411;28;20003;-53
2023/06/02 05:00:58;;;;;;;;;;;20.90;47.70;;;;;;5087893;28;19948;-53
2023/06/02 05:03:24;;;;;;;;;;;21.00;47.80;;;;;;5063713;28;20364;-53
2023/06/02 05:05:50;;;;;;;;;;;21.00;47.80;;;;;;5086535;28;19920;-54
2023/06/02 05:08:15;;;;;;;;;;;20.90;47.70;;;;;;5086622;28;19916;-54
2023/06/02 05:10:40;;;;;;;;;;;21.00;47.80;;;;;;5060150;28;20262;-53
2023/06/02 05:13:07;;;;;;;;;;;21.00;47.80;;;;;;5086442;28;20346;-54
2023/06/02 05:15:32;;;;;;;;;;;21.00;47.80;;;;;;5091340;28;19913;-54
2023/06/02 05:17:58;;;;;;;;;;;21.00;47.80;;;;;;5090482;28;19924;-53
2023/06/02 05:20:23;;;;;;;;;;;21.00;47.90;;;;;;5090290;28;19961;-54
2023/06/02 05:22:48;;;;;;;;;;;21.00;47.90;;;;;;5089500;28;19919;-54
2023/06/02 05:25:14;;;;;;;;;;;20.90;47.90;;;;;;5090252;28;19920;-54
2023/06/02 05:27:39;;;;;;;;;;;21.00;48.00;;;;;;5090093;28;19945;-53
2023/06/02 05:30:05;;;;;;;;;;;21.00;47.80;;;;;;5082474;28;20927;-53
2023/06/02 05:32:31;;;;;;;;;;;21.00;47.90;;;;;;5084426;28;19912;-53
2023/06/02 05:34:56;;;;;;;;;;;20.90;47.90;;;;;;5094633;28;19969;-53
2023/06/02 05:37:22;;;;;;;;;;;21.00;48.00;;;;;;5090207;28;20419;-54
2023/06/02 05:39:47;;;;;;;;;;;20.90;47.90;;;;;;5075494;28;19963;-54
2023/06/02 05:42:13;;;;;;;;;;;20.90;47.80;;;;;;5084428;28;19916;-54
2023/06/02 05:44:39;;;;;;;;;;;20.90;47.90;;;;;;5088147;28;19913;-54
2023/06/02 05:47:04;;;;;;;;;;;21.00;48.00;;;;;;5086297;28;19924;-53
2023/06/02 05:49:30;;;;;;;;;;;20.90;47.80;;;;;;5094654;28;20439;-53
2023/06/02 05:51:55;;;;;;;;;;;21.00;48.00;;;;;;5064916;28;20380;-54
2023/06/02 05:54:20;;;;;;;;;;;20.90;48.00;;;;;;5063891;28;20291;-54
2023/06/02 05:56:46;;;;;;;;;;;20.90;48.00;;;;;;5073669;28;20020;-55
2023/06/02 05:59:11;;;;;;;;;;;20.90;47.90;;;;;;5083248;28;19927;-53
2023/06/02 06:01:37;;;;;;;;;;;20.90;47.90;;;;;;5076332;28;19916;-53
2023/06/02 06:04:02;;;;;;;;;;;20.90;47.90;;;;;;5086686;28;19916;-54
2023/06/02 06:06:28;;;;;;;;;;;21.00;48.00;;;;;;5091979;28;19976;-53
2023/06/02 06:08:53;;;;;;;;;;;21.00;48.10;;;;;;5083518;28;19927;-53
2023/06/02 06:11:19;;;;;;;;;;;21.00;48.10;;;;;;5091889;28;19948;-53
2023/06/02 06:13:44;;;;;;;;;;;21.00;48.00;;;;;;5084602;28;19913;-54
2023/06/02 06:16:10;;;;;;;;;;;21.00;48.00;;;;;;5085115;28;19912;-54
2023/06/02 06:18:36;;;;;;;;;;;21.00;48.00;;;;;;5090474;28;19948;-54
2023/06/02 06:21:01;;;;;;;;;;;21.00;48.00;;;;;;5091120;28;19997;-54
2023/06/02 06:23:27;;;;;;;;;;;21.00;48.00;;;;;;5087091;28;19927;-54
2023/06/02 06:25:53;;;;;;;;;;;20.90;48.00;;;;;;5080685;28;19913;-54
2023/06/02 06:28:18;;;;;;;;;;;21.00;48.10;;;;;;5093296;28;19916;-55
2023/06/02 06:30:45;;;;;;;;;;;21.00;48.10;;;;;;5091664;28;20272;-54
2023/06/02 06:33:10;;;;;;;;;;;21.00;48.10;;;;;;5094629;28;19957;-54
2023/06/02 06:35:36;;;;;;;;;;;21.00;48.30;;;;;;5090763;28;20431;-54
2023/06/02 06:38:01;;;;;;;;;;;21.00;48.30;;;;;;5091716;28;20067;-54
2023/06/02 06:40:27;;;;;;;;;;;21.00;48.20;;;;;;5082265;28;19916;-54
2023/06/02 06:42:52;;;;;;;;;;;21.00;48.30;;;;;;5059345;28;19923;-54
2023/06/02 06:45:18;;;;;;;;;;;21.00;48.30;;;;;;5054195;28;19916;-55
2023/06/02 06:47:43;;;;;;;;;;;20.90;48.40;;;;;;5069534;28;19924;-54
2023/06/02 06:50:09;;;;;;;;;;;21.00;48.40;;;;;;5093824;28;20364;-53
2023/06/02 06:52:34;;;;;;;;;;;20.90;48.30;;;;;;5094080;28;19933;-54
2023/06/02 06:55:00;;;;;;;;;;;21.00;48.30;;;;;;5084876;28;19923;-54
2023/06/02 06:57:25;;;;;;;;;;;20.90;48.50;;;;;;5083392;28;19913;-54
2023/06/02 06:59:51;;;;;;;;;;;21.00;48.70;;;;;;5084611;28;19947;-54
2023/06/02 07:02:16;;;;;;;;;;;21.00;48.50;;;;;;5083234;28;19912;-54
2023/06/02 07:04:42;;;;;;;;;;;21.00;48.40;;;;;;5090297;28;19912;-54
2023/06/02 07:07:07;;;;;;;;;;;21.00;48.50;;;;;;5089925;28;20022;-54
2023/06/02 07:09:32;;;;;;;;;;;21.00;48.60;;;;;;5072927;28;19951;-54
2023/06/02 07:11:58;;;;;;;;;;;21.00;48.70;;;;;;5091600;28;19916;-54
2023/06/02 07:14:23;;;;;;;;;;;21.00;48.60;;;;;;5083577;28;19958;-54
2023/06/02 07:16:53;;;;;;;;;;;21.00;48.70;;;;;;5091597;28;19908;-54
2023/06/02 07:19:19;;;;;;;;;;;21.00;48.60;;;;;;5081767;28;20291;-54
2023/06/02 07:21:45;;;;;;;;;;;21.00;48.70;;;;;;5093279;28;19909;-54
2023/06/02 07:24:10;;;;;;;;;;;21.00;49.40;;;;;;5089708;28;20003;-55
2023/06/02 07:26:36;;;;;;;;;;;21.00;48.70;;;;;;5069129;28;19916;-54
2023/06/02 07:29:01;;;;;;;;;;;21.00;48.90;;;;;;5082749;28;19920;-54
2023/06/02 07:31:27;;;;;;;;;;;21.00;48.90;;;;;;5090680;28;20018;-54
2023/06/02 07:33:52;;;;;;;;;;;21.00;49.20;;;;;;5087716;28;19912;-54
2023/06/02 07:36:18;;;;;;;;;;;21.00;49.30;;;;;;5083811;28;20296;-54
2023/06/02 07:38:43;;;;;;;;;;;21.00;49.30;;;;;;5081642;28;20344;-54
2023/06/02 07:41:09;;;;;;;;;;;21.00;49.40;;;;;;5075424;28;19912;-54
2023/06/02 07:43:34;;;;;;;;;;;21.00;49.50;;;;;;5065022;28;19920;-54
2023/06/02 07:46:00;;;;;;;;;;;21.00;49.40;;;;;;5054351;28;19919;-54
2023/06/02 07:48:25;;;;;;;;;;;21.00;49.50;;;;;;5080067;28;19946;-55
2023/06/02 07:50:51;;;;;;;;;;;21.00;49.50;;;;;;5083700;28;20032;-54
2023/06/02 07:53:16;;;;;;;;;;;21.00;49.40;;;;;;5088934;28;19973;-54
2023/06/02 07:55:43;;;;;;;;;;;21.00;49.40;;;;;;5084482;28;22235;-54
2023/06/02 07:58:09;;;;;;;;;;;21.10;49.60;;;;;;5076407;28;19920;-55
2023/06/02 08:00:37;;;;;;;;;;;21.10;49.70;;;;;;5073914;28;19972;-54
2023/06/02 08:03:03;;;;;;;;;;;21.10;49.60;;;;;;5081653;28;20019;-54
2023/06/02 08:05:28;;;;;;;;;;;21.10;49.70;;;;;;5079483;28;19993;-53
2023/06/02 08:07:54;;;;;;;;;;;21.20;49.80;;;;;;5078915;28;19927;-53
2023/06/02 08:10:19;;;;;;;;;;;21.20;49.80;;;;;;5076500;28;19920;-55
2023/06/02 08:12:45;;;;;;;;;;;21.20;49.80;;;;;;5080525;28;19931;-55
2023/06/02 08:15:10;;;;;;;;;;;21.20;49.90;;;;;;5077095;28;19912;-54
2023/06/02 08:17:36;;;;;;;;;;;21.20;49.90;;;;;;5079070;28;19940;-55
2023/06/02 08:20:02;;;;;;;;;;;21.30;50.10;;;;;;5080058;28;19922;-55
2023/06/02 08:22:28;;;;;;;;;;;21.30;50.00;;;;;;5084605;28;20504;-55
2023/06/02 08:24:54;;;;;;;;;;;21.30;50.00;;;;;;5083927;28;20393;-55
2023/06/02 08:27:20;;;;;;;;;;;21.30;50.20;;;;;;5084270;28;20402;-55
2023/06/02 08:29:46;;;;;;;;;;;21.30;50.20;;;;;;5087039;28;19932;-55
2023/06/02 08:32:11;;;;;;;;;;;21.30;50.20;;;;;;5083231;28;19919;-55
2023/06/02 08:34:37;;;;;;;;;;;21.30;50.10;;;;;;5080351;28;19917;-55
2023/06/02 08:37:03;;;;;;;;;;;21.30;50.20;;;;;;5079051;28;19916;-55
2023/06/02 08:39:29;;;;;;;;;;;21.30;50.20;;;;;;5069706;28;20356;-56
2023/06/02 08:42:01;;;;;;;;;;;21.40;50.20;;;;;;5091282;28;19954;-55
2023/06/02 08:44:29;;;;;;;;;;;21.30;50.20;;;;;;5088171;28;20342;-55
2023/06/02 08:46:55;;;;;;;;;;;21.30;50.20;;;;;;5065576;28;19930;-56
2023/06/02 08:49:21;;;;;;;;;;;21.40;50.20;;;;;;5043559;28;19912;-55
2023/06/02 08:51:47;;;;;;;;;;;21.30;50.20;;;;;;5081074;28;19913;-55
2023/06/02 08:54:13;;;;;;;;;;;21.30;50.20;;;;;;5077097;28;19967;-55
2023/06/02 08:56:40;;;;;;;;;;;21.30;50.20;;;;;;5063753;28;20406;-54
2023/06/02 08:59:05;;;;;;;;;;;21.30;50.20;;;;;;5081120;28;19969;-55
2023/06/02 09:01:31;;;;;;;;;;;21.40;50.20;;;;;;5059335;28;19919;-56
2023/06/02 09:03:57;;;;;;;;;;;21.40;50.30;;;;;;5079637;28;19920;-56
2023/06/02 09:06:23;;;;;;;;;;;21.40;50.20;;;;;;5084050;28;19912;-55
2023/06/02 09:08:55;;;;;;;;;;;21.40;50.10;;;;;;5082018;28;19969;-55
2023/06/02 09:11:20;;;;;;;;;;;21.40;50.30;;;;;;5089003;28;20284;-53
2023/06/02 09:13:46;;;;;;;;;;;21.40;50.30;;;;;;5087970;28;19912;-55
2023/06/02 09:16:11;;;;;;;;;;;21.40;50.40;;;;;;5090266;28;20006;-56
2023/06/02 09:18:36;;;;;;;;;;;21.40;50.30;;;;;;5092948;28;19972;-56
2023/06/02 09:21:02;;;;;;;;;;;21.40;50.40;;;;;;5080895;28;20542;-55
2023/06/02 09:23:42;;;;;;;;;;;21.30;50.20;;;;;;5084614;28;19939;-55
2023/06/02 09:26:26;;;;;;;;;;;21.30;50.30;;;;;;5070260;28;19920;-55
2023/06/02 09:28:59;;;;;;;;;;;21.30;50.40;;;;;;5085698;28;19920;-56
2023/06/02 09:31:28;;;;;;;;;;;21.40;50.40;;;;;;5084166;28;19966;-55
2023/06/02 09:33:58;;;;;;;;;;;21.40;50.30;;;;;;5084899;28;19944;-55
2023/06/02 09:36:29;;;;;;;;;;;21.40;50.40;;;;;;5078210;28;19924;-55
2023/06/02 09:38:55;;;;;;;;;;;21.40;50.30;;;;;;5081393;28;20022;-54
2023/06/02 09:41:20;;;;;;;;;;;21.40;50.50;;;;;;5086370;28;19951;-54
2023/06/02 09:43:46;;;;;;;;;;;21.40;50.30;;;;;;5087671;28;20292;-54
2023/06/02 09:46:13;;;;;;;;;;;21.40;50.20;;;;;;5089321;28;19916;-54
2023/06/02 09:48:40;;;;;;;;;;;21.40;49.90;;;;;;5084149;28;20365;-53
2023/06/02 09:51:19;;;;;;;;;;;21.50;50.10;;;;;;5074561;28;20299;-54
2023/06/02 09:53:45;;;;;;;;;;;21.50;50.20;;;;;;5080887;28;22151;-53
2023/06/02 09:56:10;;;;;;;;;;;21.50;50.20;;;;;;5091699;28;19943;-54
2023/06/02 09:58:36;;;;;;;;;;;21.50;50.00;;;;;;5064446;28;19916;-54
2023/06/02 10:01:01;;;;;;;;;;;21.50;50.20;;;;;;5084884;28;19960;-54
2023/06/02 10:03:27;;;;;;;;;;;21.50;50.30;;;;;;5080006;28;20384;-55
2023/06/02 10:05:58;;;;;;;;;;;21.50;50.20;;;;;;5085731;28;20715;-54
2023/06/02 10:08:42;;;;;;;;;;;21.50;50.00;;;;;;5068352;28;19924;-55
2023/06/02 10:11:10;;;;;;;;;;;21.50;50.00;;;;;;5086041;28;20697;-54
2023/06/02 10:13:38;;;;;;;;;;;21.50;50.10;;;;;;5085301;28;20886;-55
2023/06/02 10:16:19;;;;;;;;;;;21.50;49.80;;;;;;5084258;28;19916;-54
2023/06/02 10:18:53;;;;;;;;;;;21.50;49.90;;;;;;5080191;28;20377;-54
2023/06/02 10:21:21;;;;;;;;;;;21.50;49.80;;;;;;5075399;28;20346;-54
2023/06/02 10:23:59;;;;;;;;;;;21.50;50.00;;;;;;5089948;28;20383;-55
2023/06/02 10:26:27;;;;;;;;;;;21.50;50.00;;;;;;5092852;28;19913;-55
2023/06/02 10:28:53;;;;;;;;;;;21.50;50.00;;;;;;5082742;28;19919;-55
2023/06/02 10:31:21;;;;;;;;;;;21.50;50.00;;;;;;5080088;28;19920;-55
2023/06/02 10:33:47;;;;;;;;;;;21.50;50.00;;;;;;5066419;28;19969;-55
2023/06/02 10:36:13;;;;;;;;;;;21.50;49.90;;;;;;5085190;28;20020;-55
2023/06/02 10:38:39;;;;;;;;;;;21.50;49.30;;;;;;5089087;28;19916;-54
2023/06/02 10:41:05;;;;;;;;;;;21.50;49.60;;;;;;5088670;28;19919;-54
2023/06/02 10:43:32;;;;;;;;;;;21.50;49.50;;;;;;5088961;28;20360;-54
2023/06/02 10:46:35;;;;;;;;;;;21.60;49.70;;;;;;5085452;28;20015;-55
2023/06/02 10:49:01;;;;;;;;;;;21.60;49.60;;;;;;4971256;28;19930;-54
2023/06/02 10:51:26;;;;;;;;;;;21.60;49.40;;;;;;4995408;28;20300;-54
2023/06/02 10:53:58;;;;;;;;;;;21.60;49.50;;;;;;5020812;28;19912;-54
2023/06/02 10:56:39;;;;;;;;;;;21.60;49.50;;;;;;5088928;28;19916;-54
2023/06/02 10:59:04;;;;;;;;;;;21.60;49.50;;;;;;5091084;28;19916;-54
2023/06/02 11:01:49;;;;;;;;;;;21.60;49.60;;;;;;5083643;28;20333;-54
2023/06/02 11:04:25;;;;;;;;;;;21.60;49.50;;;;;;5085990;28;19928;-54
2023/06/02 11:07:12;;;;;;;;;;;21.60;49.60;;;;;;5083247;28;19943;-54
2023/06/02 11:09:42;;;;;;;;;;;21.60;49.50;;;;;;5082986;28;19912;-54
2023/06/02 11:12:08;;;;;;;;;;;21.60;49.30;;;;;;5091125;28;20300;-55
2023/06/02 11:14:52;;;;;;;;;;;21.70;49.40;;;;;;5091531;28;19916;-54
2023/06/02 11:17:30;;;;;;;;;;;21.70;49.20;;;;;;5079709;28;19920;-54
2023/06/02 11:19:57;;;;;;;;;;;21.80;49.00;;;;;;5086888;28;19908;-55
2023/06/02 11:22:23;;;;;;;;;;;21.80;48.90;;;;;;5090799;28;19966;-54
2023/06/02 11:24:49;;;;;;;;;;;21.80;49.10;;;;;;5090721;28;19916;-54
2023/06/02 11:27:15;;;;;;;;;;;21.80;49.00;;;;;;5077745;28;19971;-55
2023/06/02 11:29:44;;;;;;;;;;;21.80;48.80;;;;;;5086403;28;20015;-55
2023/06/02 11:32:09;;;;;;;;;;;21.90;48.70;;;;;;5083436;28;19912;-55
2023/06/02 11:34:35;;;;;;;;;;;21.90;48.30;;;;;;5075948;28;19938;-54
2023/06/02 11:37:13;;;;;;;;;;;21.90;48.20;;;;;;5086310;28;19908;-55
2023/06/02 11:39:49;;;;;;;;;;;22.00;48.40;;;;;;5086785;28;19927;-54
2023/06/02 11:42:15;;;;;;;;;;;21.90;48.30;;;;;;5080168;28;19912;-55
2023/06/02 11:44:47;;;;;;;;;;;22.00;48.00;;;;;;5090976;28;19912;-54
2023/06/02 11:47:16;;;;;;;;;;;22.00;48.10;;;;;;5086115;28;19931;-55
2023/06/02 11:49:41;;;;;;;;;;;22.00;48.10;;;;;;5083153;28;20455;-55
2023/06/02 11:52:07;;;;;;;;;;;21.90;48.20;;;;;;5086871;28;20007;-54
2023/06/02 11:54:32;;;;;;;;;;;21.90;48.40;;;;;;5058640;28;19959;-54
2023/06/02 11:56:57;;;;;;;;;;;21.90;48.30;;;;;;5061299;28;19920;-55
2023/06/02 11:59:23;;;;;;;;;;;21.80;48.30;;;;;;5080472;28;19915;-54
2023/06/02 12:01:48;;;;;;;;;;;21.80;48.40;;;;;;5086555;28;19919;-55
2023/06/02 12:04:14;;;;;;;;;;;21.80;48.20;;;;;;5090513;28;20341;-54
2023/06/02 12:06:46;;;;;;;;;;;21.80;48.20;;;;;;5087773;28;19915;-54
2023/06/02 12:09:15;;;;;;;;;;;21.80;48.30;;;;;;5066208;28;19923;-54
2023/06/02 12:11:40;;;;;;;;;;;21.80;48.00;;;;;;5080780;28;19916;-55
2023/06/02 12:14:06;;;;;;;;;;;21.90;47.60;;;;;;5068690;28;19916;-56
2023/06/02 12:16:34;;;;;;;;;;;22.00;47.40;;;;;;5087600;28;19914;-55
2023/06/02 12:19:14;;;;;;;;;;;22.10;47.60;;;;;;5086051;28;19961;-54
2023/06/02 12:21:40;;;;;;;;;;;22.10;47.10;;;;;;5080184;28;19995;-55
2023/06/02 12:24:06;;;;;;;;;;;22.10;46.80;;;;;;5081225;28;19998;-55
2023/06/02 12:26:40;;;;;;;;;;;22.20;46.80;;;;;;5090372;28;19958;-55
2023/06/02 12:29:07;;;;;;;;;;;22.20;46.60;;;;;;5058517;28;19977;-54
2023/06/02 12:31:32;;;;;;;;;;;22.20;46.70;;;;;;5065075;28;19916;-54
2023/06/02 12:33:58;;;;;;;;;;;22.20;47.00;;;;;;5082530;28;20633;-54
2023/06/02 12:36:23;;;;;;;;;;;22.20;47.10;;;;;;5081988;28;19920;-55
2023/06/02 12:38:49;;;;;;;;;;;22.20;46.50;;;;;;5083421;28;19912;-55
2023/06/02 12:41:14;;;;;;;;;;;22.30;46.30;;;;;;5069463;28;20332;-54
2023/06/02 12:43:40;;;;;;;;;;;22.30;46.30;;;;;;5081926;28;19950;-56
2023/06/02 12:46:06;;;;;;;;;;;22.30;46.30;;;;;;5084284;28;19920;-55
2023/06/02 12:48:31;;;;;;;;;;;22.30;46.30;;;;;;5072403;28;19924;-55
2023/06/02 12:50:57;;;;;;;;;;;22.20;46.50;;;;;;5074010;28;19912;-55
2023/06/02 12:53:22;;;;;;;;;;;22.20;46.20;;;;;;5084747;28;20356;-55
2023/06/02 12:55:47;;;;;;;;;;;22.20;46.20;;;;;;5086661;28;20311;-55
2023/06/02 12:58:13;;;;;;;;;;;22.20;46.00;;;;;;5087361;28;19916;-54
2023/06/02 13:00:39;;;;;;;;;;;22.20;46.20;;;;;;5075827;28;19916;-54
2023/06/02 13:03:05;;;;;;;;;;;22.20;45.90;;;;;;5069195;28;19913;-54
2023/06/02 13:05:31;;;;;;;;;;;22.20;45.80;;;;;;5088886;28;19956;-55
2023/06/02 13:07:57;;;;;;;;;;;22.30;45.80;;;;;;5088779;28;20399;-56
2023/06/02 13:10:22;;;;;;;;;;;22.30;45.60;;;;;;5054909;28;19916;-54
2023/06/02 13:12:48;;;;;;;;;;;22.30;45.70;;;;;;5081701;28;20439;-55
2023/06/02 13:15:13;;;;;;;;;;;22.40;46.00;;;;;;5088165;28;19916;-55
2023/06/02 13:17:39;;;;;;;;;;;22.40;45.40;;;;;;5081010;28;20041;-55
2023/06/02 13:20:05;;;;;;;;;;;22.40;45.10;;;;;;5087040;28;19926;-55
2023/06/02 13:22:30;;;;;;;;;;;22.40;45.10;;;;;;5082497;28;19917;-56
2023/06/02 13:24:56;;;;;;;;;;;22.50;45.50;;;;;;5086391;28;19918;-55
2023/06/02 13:27:21;;;;;;;;;;;22.50;45.10;;;;;;5088272;28;19916;-55
2023/06/02 13:29:47;;;;;;;;;;;22.50;44.70;;;;;;5079343;28;19912;-55
2023/06/02 13:32:12;;;;;;;;;;;22.60;44.90;;;;;;5077931;28;19923;-55
2023/06/02 13:34:40;;;;;;;;;;;22.60;44.70;;;;;;5081657;28;19924;-55
2023/06/02 13:37:05;;;;;;;;;;;22.60;44.80;;;;;;5078544;28;19913;-53
2023/06/02 13:39:31;;;;;;;;;;;22.60;45.10;;;;;;5083436;28;19998;-53
2023/06/02 13:41:56;;;;;;;;;;;22.60;44.80;;;;;;5063901;28;19916;-53
2023/06/02 13:44:21;;;;;;;;;;;22.60;44.80;;;;;;5081787;28;19920;-54
2023/06/02 13:46:47;;;;;;;;;;;22.60;44.30;;;;;;5063559;28;19916;-54
2023/06/02 13:49:16;;;;;;;;;;;22.60;44.90;;;;;;5078390;28;19921;-54
2023/06/02 13:51:48;;;;;;;;;;;22.60;46.00;;;;;;5065484;28;19912;-54
2023/06/02 13:54:17;;;;;;;;;;;22.50;45.20;;;;;;5087284;28;20104;-53
2023/06/02 13:56:43;;;;;;;;;;;22.60;44.90;;;;;;5087542;28;19926;-54
2023/06/02 13:59:08;;;;;;;;;;;22.60;44.50;;;;;;5067281;28;20291;-54
2023/06/02 14:01:34;;;;;;;;;;;22.60;44.80;;;;;;5091345;28;20354;-54
2023/06/02 14:03:59;;;;;;;;;;;22.60;44.50;;;;;;5085503;28;19916;-54
2023/06/02 14:06:24;;;;;;;;;;;22.60;44.10;;;;;;5086708;28;19950;-54
2023/06/02 14:08:50;;;;;;;;;;;22.60;43.80;;;;;;5085389;28;19916;-54
2023/06/02 14:11:15;;;;;;;;;;;22.60;44.20;;;;;;5083709;28;19970;-54
2023/06/02 14:13:41;;;;;;;;;;;22.70;44.10;;;;;;5083967;28;19921;-55